LFBY/XDA METAR and TAF weather

Enter ICAO airport designator
Station Type Date Time Source
LFBY METAR 2021/07/28 05:00 UTC NOAA

LFBY 280500Z 00000KT 7000 SCT016 BKN066 17/16 Q1017


Station Type Date Time Source
LFBY Decoded METAR 2021/07/28 05:00 UTC NOAA

Dax, France (LFBY) 43-41N 001-04W 32M
Jul 28, 2021 - 01:00 AM EDT / 2021.07.28 0500 UTC
Wind: Calm:0
Visibility: 4 mile(s):0
Sky conditions: mostly cloudy
Temperature: 62 F (17 C)
Dew Point: 60 F (16 C)
Relative Humidity: 93%
Pressure (altimeter): 30.03 in. Hg (1017 hPa)
ob: LFBY 280500Z 00000KT 7000 SCT016 BKN066 17/16 Q1017
cycle: 5

Station Type Date Time Source
LFBY TAF UTC NOAA

Error!

Example: see airport list